createdAt,value
2023-05-15T00:02:15.732Z,92.50
2023-05-15T00:05:37.979Z,92.50
2023-05-15T00:09:00.310Z,92.50
2023-05-15T00:12:22.520Z,92.50
2023-05-15T00:15:44.864Z,92.50
2023-05-15T00:19:07.334Z,92.50
2023-05-15T00:22:29.731Z,92.50
2023-05-15T00:25:52.450Z,92.40
2023-05-15T00:29:14.704Z,92.40
2023-05-15T00:32:36.952Z,92.40
2023-05-15T00:35:59.168Z,92.40
2023-05-15T00:39:21.460Z,92.40
2023-05-15T00:42:44.056Z,92.40
2023-05-15T00:46:07.583Z,92.40
2023-05-15T00:49:30.251Z,92.30
2023-05-15T00:52:53.610Z,92.40
2023-05-15T00:56:17.406Z,92.40
2023-05-15T00:59:42.301Z,92.40
2023-05-15T01:03:06.051Z,92.40
2023-05-15T01:06:30.815Z,92.40
2023-05-15T01:09:56.291Z,92.40
2023-05-15T01:13:21.770Z,92.30
2023-05-15T01:16:43.977Z,92.30
2023-05-15T01:20:10.366Z,92.30
2023-05-15T01:23:52.222Z,92.30
2023-05-15T01:27:30.396Z,92.30
2023-05-15T01:30:56.175Z,92.30
2023-05-15T01:34:23.273Z,92.30
2023-05-15T01:37:50.101Z,92.20
2023-05-15T01:41:28.261Z,92.20
2023-05-15T01:44:55.237Z,92.30
2023-05-15T01:48:19.400Z,92.30
2023-05-15T01:51:44.421Z,92.30
2023-05-15T01:55:08.737Z,92.20
2023-05-15T01:58:32.343Z,92.20
2023-05-15T02:01:55.884Z,92.30
2023-05-15T02:05:19.970Z,92.20
2023-05-15T02:08:43.677Z,92.30
2023-05-15T02:12:06.672Z,92.20
2023-05-15T02:15:30.623Z,92.20
2023-05-15T02:18:53.051Z,92.20
2023-05-15T02:22:15.602Z,92.20
2023-05-15T02:26:00.687Z,92.20
2023-05-15T02:29:55.403Z,92.60
2023-05-15T02:33:29.458Z,92.10
2023-05-15T02:36:53.221Z,92.10
2023-05-15T02:40:16.441Z,92.10
2023-05-15T02:43:40.329Z,92.10
2023-05-15T02:47:04.702Z,92.10
2023-05-15T02:50:29.033Z,92.20
2023-05-15T02:53:52.390Z,92.20
2023-05-15T02:57:14.612Z,92.10
2023-05-15T03:00:36.830Z,92.20
2023-05-15T03:03:59.099Z,92.10
2023-05-15T03:07:21.430Z,92.10
2023-05-15T03:10:44.565Z,92.10
2023-05-15T03:14:06.863Z,92.50
2023-05-15T03:17:29.255Z,92.10
2023-05-15T03:20:52.835Z,92.10
2023-05-15T03:24:15.154Z,92.10
2023-05-15T03:27:38.017Z,92.10
2023-05-15T03:31:00.350Z,92.10
2023-05-15T03:34:22.610Z,92.10
2023-05-15T03:37:44.912Z,92.10
2023-05-15T03:41:07.151Z,92.10
2023-05-15T03:44:29.672Z,92.10
2023-05-15T03:47:53.058Z,92.10
2023-05-15T03:51:15.540Z,92.10
2023-05-15T03:54:37.883Z,92.10
2023-05-15T03:58:00.431Z,92.10
2023-05-15T04:01:23.122Z,92.00
2023-05-15T04:04:45.457Z,92.00
2023-05-15T04:08:09.680Z,92.00
2023-05-15T04:11:31.958Z,92.00
2023-05-15T04:14:54.201Z,92.00
2023-05-15T04:18:16.526Z,92.00
2023-05-15T04:21:38.779Z,92.00
2023-05-15T04:25:01.287Z,92.00
2023-05-15T04:28:23.601Z,92.00
2023-05-15T04:31:45.832Z,91.90
2023-05-15T04:35:10.539Z,91.90
2023-05-15T04:38:33.271Z,91.90
2023-05-15T04:41:55.752Z,91.90
2023-05-15T04:45:18.291Z,91.90
2023-05-15T04:48:40.696Z,91.90
2023-05-15T04:52:03.086Z,91.90
2023-05-15T04:55:25.516Z,91.90
2023-05-15T04:58:47.912Z,91.80
2023-05-15T05:02:11.126Z,91.90
2023-05-15T05:05:33.447Z,91.80
2023-05-15T05:08:55.655Z,91.90
2023-05-15T05:12:17.902Z,92.00
2023-05-15T05:15:40.152Z,91.90
2023-05-15T05:19:02.661Z,91.90
2023-05-15T05:22:24.945Z,92.10
2023-05-15T05:25:47.158Z,92.20
2023-05-15T05:29:09.479Z,92.50
2023-05-15T05:32:31.977Z,92.70
2023-05-15T05:35:55.669Z,92.70
2023-05-15T05:39:18.521Z,92.80
2023-05-15T05:42:41.355Z,92.80
2023-05-15T05:46:03.601Z,92.90
2023-05-15T05:49:25.860Z,92.90
2023-05-15T05:52:48.470Z,92.80
2023-05-15T05:56:10.796Z,92.90
2023-05-15T05:59:33.136Z,92.70
2023-05-15T06:02:59.828Z,92.50
2023-05-15T06:06:22.460Z,92.70
2023-05-15T06:09:45.968Z,93.50
2023-05-15T06:13:08.319Z,93.20
2023-05-15T06:16:30.996Z,93.30
2023-05-15T06:19:53.893Z,93.20
2023-05-15T06:23:16.134Z,93.20
2023-05-15T06:26:38.495Z,93.40
2023-05-15T06:30:00.691Z,93.30
2023-05-15T06:33:22.928Z,93.30
2023-05-15T06:36:45.150Z,93.30
2023-05-15T06:40:08.103Z,93.10
2023-05-15T06:43:30.309Z,93.20
2023-05-15T06:46:52.863Z,93.00
2023-05-15T06:50:15.053Z,93.00
2023-05-15T06:53:37.261Z,93.00
2023-05-15T06:56:59.596Z,92.40
2023-05-15T07:00:21.961Z,92.50
2023-05-15T07:03:44.494Z,93.00
2023-05-15T07:07:07.234Z,92.90
2023-05-15T07:10:29.451Z,92.90
2023-05-15T07:13:53.051Z,92.90
2023-05-15T07:17:15.312Z,92.90
2023-05-15T07:20:38.005Z,92.90
2023-05-15T07:24:00.705Z,92.90
2023-05-15T07:27:22.959Z,92.90
2023-05-15T07:30:45.333Z,93.20
2023-05-15T07:34:07.550Z,93.10
2023-05-15T07:37:29.923Z,93.00
2023-05-15T07:40:52.158Z,93.00
2023-05-15T07:44:14.437Z,93.00
2023-05-15T07:47:36.871Z,93.10
2023-05-15T07:50:59.252Z,93.20
2023-05-15T07:54:21.808Z,93.80
2023-05-15T07:57:44.268Z,93.70
2023-05-15T08:01:06.761Z,94.10
2023-05-15T08:04:29.002Z,93.70
2023-05-15T08:07:51.538Z,93.90
2023-05-15T08:11:13.967Z,94.00
2023-05-15T08:14:36.455Z,93.90
2023-05-15T08:17:58.827Z,93.90
2023-05-15T08:21:21.179Z,94.50
2023-05-15T08:24:43.525Z,94.00
2023-05-15T08:28:06.126Z,94.00
2023-05-15T08:31:28.596Z,94.40
2023-05-15T08:34:50.902Z,94.60
2023-05-15T08:38:13.156Z,94.50
2023-05-15T08:41:52.960Z,94.60
2023-05-15T08:45:15.900Z,94.80
2023-05-15T08:48:41.745Z,94.60
2023-05-15T08:52:05.016Z,94.60
2023-05-15T08:55:29.005Z,94.60
2023-05-15T08:58:51.654Z,94.50
2023-05-15T09:02:14.633Z,94.50
2023-05-15T09:05:38.827Z,94.40
2023-05-15T09:09:05.223Z,94.70
2023-05-15T09:12:27.524Z,94.70
2023-05-15T09:15:50.765Z,94.60
2023-05-15T09:19:15.391Z,94.50
2023-05-15T09:22:37.816Z,94.60
2023-05-15T09:26:00.328Z,94.50
2023-05-15T09:29:22.570Z,94.40
2023-05-15T09:32:44.888Z,94.00
2023-05-15T09:36:08.846Z,95.40
2023-05-15T09:39:31.246Z,96.00
2023-05-15T09:42:53.566Z,95.60
2023-05-15T09:46:17.441Z,95.90
2023-05-15T09:49:40.151Z,97.00
2023-05-15T09:53:03.039Z,96.70
2023-05-15T09:56:26.203Z,96.60
2023-05-15T09:59:49.129Z,96.50
2023-05-15T10:03:12.193Z,96.30
2023-05-15T10:06:40.084Z,96.30
2023-05-15T10:10:04.852Z,97.10
2023-05-15T10:13:28.996Z,96.70
2023-05-15T10:16:51.291Z,96.40
2023-05-15T10:20:15.584Z,96.50
2023-05-15T10:23:41.244Z,97.00
2023-05-15T10:27:04.250Z,96.30
2023-05-15T10:30:28.178Z,96.60
2023-05-15T10:33:51.906Z,97.70
2023-05-15T10:37:15.744Z,97.20
2023-05-15T10:40:39.509Z,96.70
2023-05-15T10:44:02.849Z,97.20
2023-05-15T10:47:25.498Z,97.20
2023-05-15T10:50:49.082Z,98.30
2023-05-15T10:54:11.413Z,98.00
2023-05-15T10:57:33.870Z,98.00
2023-05-15T11:00:56.806Z,97.50
2023-05-15T11:04:22.696Z,96.60
2023-05-15T11:07:49.637Z,97.40
2023-05-15T11:11:50.801Z,97.90
2023-05-15T11:15:13.326Z,97.70
2023-05-15T11:18:37.848Z,97.60
2023-05-15T11:22:13.570Z,97.50
2023-05-15T11:25:36.933Z,97.60
2023-05-15T11:29:18.132Z,97.40
2023-05-15T11:32:55.734Z,97.20
2023-05-15T11:36:24.335Z,97.10
2023-05-15T11:39:47.568Z,97.10
2023-05-15T11:43:26.060Z,97.00
2023-05-15T11:46:50.316Z,96.90
2023-05-15T11:50:12.905Z,96.80
2023-05-15T11:53:35.958Z,96.70
2023-05-15T11:56:58.946Z,96.60
2023-05-15T12:00:21.982Z,96.50
2023-05-15T12:03:48.457Z,96.50
2023-05-15T12:07:12.125Z,96.40
2023-05-15T12:10:39.735Z,96.30
2023-05-15T12:14:02.027Z,96.20
2023-05-15T12:17:24.830Z,96.20
2023-05-15T12:20:47.193Z,96.10
2023-05-15T12:24:11.912Z,96.10
2023-05-15T12:27:36.457Z,96.00
2023-05-15T12:30:59.861Z,96.00
2023-05-15T12:34:22.377Z,96.00
2023-05-15T12:37:45.724Z,95.90
2023-05-15T12:41:11.774Z,96.00
2023-05-15T12:44:34.006Z,95.20
2023-05-15T12:47:59.053Z,95.30
2023-05-15T12:51:22.339Z,95.30
2023-05-15T12:54:44.937Z,95.00
2023-05-15T12:58:08.627Z,94.90
2023-05-15T13:01:30.924Z,95.50
2023-05-15T13:04:53.769Z,95.60
2023-05-15T13:08:19.200Z,95.20
2023-05-15T13:11:45.190Z,95.40
2023-05-15T13:15:08.263Z,94.80
2023-05-15T13:18:30.754Z,95.30
2023-05-15T13:21:52.972Z,95.30
2023-05-15T13:25:18.919Z,95.30
2023-05-15T13:28:41.205Z,95.30
2023-05-15T13:32:03.618Z,95.20
2023-05-15T13:35:25.880Z,95.20
2023-05-15T13:38:48.158Z,95.20
2023-05-15T13:42:10.468Z,95.20
2023-05-15T13:45:32.795Z,95.10
2023-05-15T13:48:55.045Z,95.10
2023-05-15T13:52:17.305Z,95.00
2023-05-15T13:55:39.604Z,95.00
2023-05-15T13:59:01.928Z,94.90
2023-05-15T14:02:27.064Z,94.90
2023-05-15T14:05:49.453Z,94.90
2023-05-15T14:09:11.745Z,94.90
2023-05-15T14:12:34.095Z,94.70
2023-05-15T14:15:56.583Z,94.60
2023-05-15T14:19:19.078Z,94.70
2023-05-15T14:22:41.448Z,94.70
2023-05-15T14:26:03.814Z,94.60
2023-05-15T14:29:26.058Z,94.50
2023-05-15T14:32:48.348Z,94.50
2023-05-15T14:36:10.630Z,94.50
2023-05-15T14:39:32.965Z,94.50
2023-05-15T14:42:55.339Z,94.70
2023-05-15T14:46:17.630Z,94.70
2023-05-15T14:49:40.662Z,94.60
2023-05-15T14:53:02.920Z,94.30
2023-05-15T14:56:25.927Z,93.80
2023-05-15T14:59:48.204Z,93.60
2023-05-15T15:03:10.952Z,94.00
2023-05-15T15:06:33.279Z,93.70
2023-05-15T15:09:55.556Z,93.60
2023-05-15T15:13:17.882Z,93.50
2023-05-15T15:16:40.400Z,93.50
2023-05-15T15:20:05.237Z,93.20
2023-05-15T15:23:27.578Z,93.50
2023-05-15T15:26:49.819Z,93.20
2023-05-15T15:30:12.977Z,93.30
2023-05-15T15:33:35.367Z,93.50
2023-05-15T15:36:57.590Z,93.50
2023-05-15T15:40:20.524Z,93.40
2023-05-15T15:43:42.838Z,93.40
2023-05-15T15:47:05.119Z,93.30
2023-05-15T15:50:27.839Z,92.90
2023-05-15T15:53:50.297Z,92.60
2023-05-15T15:57:16.368Z,93.00
2023-05-15T16:00:38.660Z,92.90
2023-05-15T16:04:01.088Z,93.00
2023-05-15T16:07:23.391Z,93.00
2023-05-15T16:10:45.948Z,93.20
2023-05-15T16:14:08.288Z,93.30
2023-05-15T16:17:30.607Z,93.40
2023-05-15T16:20:52.883Z,93.30
2023-05-15T16:24:15.507Z,93.30
2023-05-15T16:27:37.806Z,93.10
2023-05-15T16:31:00.919Z,93.30
2023-05-15T16:34:23.304Z,93.20
2023-05-15T16:37:45.637Z,93.20
2023-05-15T16:41:07.889Z,93.10
2023-05-15T16:44:30.138Z,92.90
2023-05-15T16:47:52.407Z,93.10
2023-05-15T16:51:14.742Z,92.90
2023-05-15T16:54:37.061Z,92.80
2023-05-15T16:57:59.375Z,92.90
2023-05-15T17:01:21.889Z,92.90
2023-05-15T17:04:44.153Z,93.00
2023-05-15T17:08:06.450Z,92.80
2023-05-15T17:11:28.714Z,92.80
2023-05-15T17:14:51.056Z,92.60
2023-05-15T17:18:13.292Z,92.60
2023-05-15T17:21:37.293Z,92.60
2023-05-15T17:24:59.603Z,92.60
2023-05-15T17:28:21.875Z,92.40
2023-05-15T17:31:44.354Z,91.40
2023-05-15T17:35:08.140Z,92.10
2023-05-15T17:38:30.491Z,92.00
2023-05-15T17:41:53.159Z,92.20
2023-05-15T17:45:15.565Z,92.20
2023-05-15T17:48:37.874Z,92.20
2023-05-15T17:52:00.142Z,92.10
2023-05-15T17:55:22.550Z,92.40
2023-05-15T17:58:44.902Z,92.60
2023-05-15T18:02:07.422Z,92.80
2023-05-15T18:05:29.730Z,93.30
2023-05-15T18:08:51.957Z,93.80
2023-05-15T18:12:14.246Z,94.10
2023-05-15T18:15:36.513Z,94.10
2023-05-15T18:18:59.478Z,94.10
2023-05-15T18:22:21.813Z,94.10
2023-05-15T18:25:44.519Z,94.10
2023-05-15T18:29:06.754Z,94.10
2023-05-15T18:32:28.984Z,94.10
2023-05-15T18:35:52.286Z,93.90
2023-05-15T18:39:15.704Z,94.00
2023-05-15T18:42:37.996Z,94.10
2023-05-15T18:46:00.353Z,93.90
2023-05-15T18:49:22.634Z,93.90
2023-05-15T18:52:45.082Z,93.70
2023-05-15T18:56:07.307Z,93.70
2023-05-15T18:59:29.702Z,93.90
2023-05-15T19:02:52.013Z,93.60
2023-05-15T19:06:19.714Z,93.80
2023-05-15T19:09:42.065Z,93.80
2023-05-15T19:13:04.564Z,93.50
2023-05-15T19:16:28.578Z,94.00
2023-05-15T19:19:54.371Z,93.50
2023-05-15T19:23:16.584Z,93.10
2023-05-15T19:26:39.020Z,93.40
2023-05-15T19:30:02.125Z,93.20
2023-05-15T19:33:24.723Z,93.30
2023-05-15T19:36:47.392Z,93.30
2023-05-15T19:40:09.992Z,93.00
2023-05-15T19:43:35.948Z,92.90
2023-05-15T19:46:58.224Z,92.70
2023-05-15T19:50:20.501Z,92.60
2023-05-15T19:53:43.739Z,92.50
2023-05-15T19:57:06.067Z,92.50
2023-05-15T20:00:28.598Z,92.40
2023-05-15T20:03:51.072Z,92.50
2023-05-15T20:07:13.399Z,92.40
2023-05-15T20:10:35.752Z,92.30
2023-05-15T20:13:58.070Z,92.20
2023-05-15T20:17:20.590Z,92.20
2023-05-15T20:20:43.058Z,92.20
2023-05-15T20:24:06.042Z,92.20
2023-05-15T20:27:28.370Z,92.20
2023-05-15T20:30:52.292Z,92.20
2023-05-15T20:34:15.951Z,92.20
2023-05-15T20:37:40.977Z,92.10
2023-05-15T20:41:03.920Z,91.70
2023-05-15T20:44:26.171Z,91.70
2023-05-15T20:47:49.380Z,91.10
2023-05-15T20:51:11.662Z,90.70
2023-05-15T20:54:33.985Z,90.60
2023-05-15T20:57:56.292Z,90.60
2023-05-15T21:01:18.604Z,90.60
2023-05-15T21:04:40.849Z,90.60
2023-05-15T21:08:03.423Z,90.50
2023-05-15T21:11:25.944Z,90.50
2023-05-15T21:14:48.226Z,90.50
2023-05-15T21:18:10.507Z,90.50
2023-05-15T21:21:32.818Z,90.40
2023-05-15T21:24:55.003Z,90.40
2023-05-15T21:28:17.454Z,90.70
2023-05-15T21:31:39.740Z,90.70
2023-05-15T21:35:02.085Z,90.70
2023-05-15T21:38:24.348Z,90.70
2023-05-15T21:41:46.835Z,90.70
2023-05-15T21:45:09.308Z,90.80
2023-05-15T21:48:31.646Z,90.70
2023-05-15T21:51:53.896Z,90.70
2023-05-15T21:55:16.426Z,90.70
2023-05-15T21:58:38.633Z,90.70
2023-05-15T22:02:01.062Z,90.60
2023-05-15T22:05:23.351Z,90.60
2023-05-15T22:08:45.553Z,90.60
2023-05-15T22:12:08.224Z,90.60
2023-05-15T22:15:30.580Z,90.50
2023-05-15T22:18:53.851Z,90.50
2023-05-15T22:22:16.260Z,90.50
2023-05-15T22:25:38.419Z,90.40
2023-05-15T22:29:00.670Z,90.40
2023-05-15T22:32:23.129Z,90.30
2023-05-15T22:35:45.859Z,90.30
2023-05-15T22:39:08.206Z,90.30
2023-05-15T22:42:30.426Z,90.30
2023-05-15T22:45:52.794Z,90.30
2023-05-15T22:49:19.267Z,90.20
2023-05-15T22:52:41.673Z,90.20
2023-05-15T22:56:03.979Z,90.20
2023-05-15T22:59:26.530Z,90.20
2023-05-15T23:02:48.831Z,90.20
2023-05-15T23:06:17.016Z,90.10
2023-05-15T23:09:39.370Z,90.20
2023-05-15T23:13:01.714Z,90.10
2023-05-15T23:16:25.622Z,90.20
2023-05-15T23:19:48.149Z,90.20
2023-05-15T23:23:10.484Z,90.10
2023-05-15T23:26:32.824Z,90.10
2023-05-15T23:29:55.042Z,90.10
2023-05-15T23:33:17.270Z,90.00
2023-05-15T23:36:39.555Z,90.10
2023-05-15T23:40:02.022Z,90.00
2023-05-15T23:43:24.331Z,90.00
2023-05-15T23:46:46.716Z,90.00
2023-05-15T23:50:09.140Z,89.90
2023-05-15T23:53:31.652Z,89.80
2023-05-15T23:56:53.891Z,89.70
